Time;durP1;ratioP1;P1;durP2;ratioP2;P2;SDS_P1;SDS_P2;PMS_P1;PMS_P2;Temp;Humidity;BMP_temperature;BMP_pressure;BME280_temperature;BME280_humidity;BME280_pressure;Samples;Min_cycle;Max_cycle;Signal;HPM_P1;HPM_P2
2024/01/07 00:01:27;;;;;;;21.10;14.53;;;11.60;62.80;;;;;;4986822;28;20217;-59
2024/01/07 00:03:52;;;;;;;19.70;15.33;;;11.60;62.90;;;;;;4986549;28;20197;-61
2024/01/07 00:06:18;;;;;;;22.10;15.70;;;11.60;62.80;;;;;;4993652;28;20209;-61
2024/01/07 00:08:44;;;;;;;22.73;16.10;;;11.60;62.80;;;;;;4992716;28;20245;-60
2024/01/07 00:11:09;;;;;;;20.03;15.60;;;11.60;63.00;;;;;;4981103;28;20226;-61
2024/01/07 00:13:36;;;;;;;23.67;17.30;;;11.60;63.40;;;;;;4990430;28;20195;-61
2024/01/07 00:16:01;;;;;;;21.23;15.90;;;11.60;63.40;;;;;;4991402;28;20697;-60
2024/01/07 00:18:27;;;;;;;23.23;16.83;;;11.60;63.60;;;;;;4986469;28;20597;-62
2024/01/07 00:20:53;;;;;;;24.73;16.27;;;11.60;63.50;;;;;;4989582;28;20673;-62
2024/01/07 00:23:20;;;;;;;26.77;17.10;;;11.60;63.40;;;;;;4997780;28;20201;-61
2024/01/07 00:25:48;;;;;;;23.47;16.07;;;11.60;63.50;;;;;;4982402;28;20470;-60
2024/01/07 00:28:14;;;;;;;22.10;15.70;;;11.60;63.50;;;;;;5000731;28;20468;-60
2024/01/07 00:30:40;;;;;;;25.17;17.03;;;11.70;63.60;;;;;;4989919;28;20940;-60
2024/01/07 00:33:05;;;;;;;22.10;16.27;;;11.70;64.10;;;;;;4989473;28;20198;-62
2024/01/07 00:35:31;;;;;;;25.30;17.37;;;11.70;63.50;;;;;;4987950;28;20235;-61
2024/01/07 00:37:57;;;;;;;21.27;16.33;;;11.70;63.50;;;;;;4990223;28;20804;-60
2024/01/07 00:40:24;;;;;;;23.13;16.67;;;11.70;63.40;;;;;;4995553;28;20197;-60
2024/01/07 00:42:51;;;;;;;22.73;16.33;;;11.70;63.70;;;;;;4984316;28;20502;-60
2024/01/07 00:45:17;;;;;;;21.70;15.67;;;11.70;63.50;;;;;;4995895;28;20440;-60
2024/01/07 00:47:43;;;;;;;21.77;15.97;;;11.70;63.40;;;;;;4990822;28;20525;-59
2024/01/07 00:50:09;;;;;;;23.53;15.17;;;11.80;63.40;;;;;;4992612;28;20433;-59
2024/01/07 00:52:36;;;;;;;26.70;17.70;;;11.80;63.40;;;;;;4996010;28;20193;-62
2024/01/07 00:55:03;;;;;;;22.63;16.07;;;11.70;63.30;;;;;;4987865;28;20319;-61
2024/01/07 00:57:29;;;;;;;22.17;16.00;;;11.70;63.70;;;;;;4992881;28;20441;-60
2024/01/07 00:59:54;;;;;;;19.60;15.07;;;11.70;63.50;;;;;;4986429;28;20521;-61
2024/01/07 01:02:20;;;;;;;20.77;15.33;;;11.70;63.60;;;;;;4984492;28;20437;-59
2024/01/07 01:04:45;;;;;;;23.30;17.30;;;11.70;63.40;;;;;;4993835;28;20198;-62
2024/01/07 01:07:11;;;;;;;20.43;15.20;;;11.70;63.70;;;;;;4994821;28;20244;-60
2024/01/07 01:09:37;;;;;;;21.57;14.87;;;11.70;63.80;;;;;;4997460;28;20190;-60
2024/01/07 01:12:02;;;;;;;21.30;15.57;;;11.70;63.70;;;;;;4991519;28;20181;-61
2024/01/07 01:14:28;;;;;;;22.47;16.50;;;11.70;64.00;;;;;;4993241;28;20269;-61
2024/01/07 01:16:53;;;;;;;27.63;17.03;;;11.70;63.90;;;;;;4986322;28;20210;-61
2024/01/07 01:19:19;;;;;;;24.47;17.07;;;11.70;64.00;;;;;;5002332;28;20303;-59
2024/01/07 01:21:44;;;;;;;23.67;17.60;;;11.70;63.90;;;;;;5001614;28;20200;-60
2024/01/07 01:24:10;;;;;;;22.63;16.70;;;11.80;63.90;;;;;;4993032;28;20191;-60
2024/01/07 01:26:36;;;;;;;21.40;15.40;;;11.80;63.80;;;;;;4993174;28;20210;-61
2024/01/07 01:29:01;;;;;;;22.63;16.47;;;11.80;63.80;;;;;;4996796;28;20186;-60
2024/01/07 01:31:27;;;;;;;24.50;16.80;;;11.70;63.90;;;;;;4994608;28;20798;-60
2024/01/07 01:33:52;;;;;;;23.70;16.57;;;11.70;63.90;;;;;;4995955;28;20280;-61
2024/01/07 01:36:18;;;;;;;23.40;16.90;;;11.70;63.90;;;;;;4992548;28;20232;-62
2024/01/07 01:38:43;;;;;;;23.87;16.43;;;11.70;63.80;;;;;;4999372;28;20192;-59
2024/01/07 01:41:09;;;;;;;23.40;16.67;;;11.80;63.90;;;;;;4995120;28;20193;-61
2024/01/07 01:43:35;;;;;;;28.23;15.43;;;11.80;63.80;;;;;;4988357;28;20195;-62
2024/01/07 01:46:02;;;;;;;21.37;15.10;;;11.80;64.30;;;;;;4999468;28;20213;-60
2024/01/07 01:48:28;;;;;;;23.63;15.77;;;11.80;63.50;;;;;;5001297;28;20202;-62
2024/01/07 01:50:57;;;;;;;24.00;16.30;;;11.80;63.50;;;;;;4995411;28;20444;-58
2024/01/07 01:53:24;;;;;;;21.90;15.60;;;11.80;63.50;;;;;;4993531;28;20486;-61
2024/01/07 01:55:49;;;;;;;24.13;16.70;;;11.80;63.40;;;;;;4998545;28;20823;-59
2024/01/07 01:58:17;;;;;;;27.43;16.30;;;11.80;63.60;;;;;;4985811;28;20460;-60
2024/01/07 02:00:44;;;;;;;19.93;14.70;;;11.80;63.70;;;;;;4997669;28;20258;-61
2024/01/07 02:03:09;;;;;;;23.53;16.60;;;11.80;63.50;;;;;;4999854;28;20958;-58
2024/01/07 02:05:35;;;;;;;24.13;15.13;;;11.80;63.50;;;;;;4987268;28;20470;-60
2024/01/07 02:08:01;;;;;;;22.50;15.07;;;11.80;63.50;;;;;;4992859;28;20268;-60
2024/01/07 02:10:28;;;;;;;28.10;15.10;;;11.80;63.40;;;;;;4986211;28;20185;-61
2024/01/07 02:12:54;;;;;;;22.33;15.60;;;11.80;63.40;;;;;;4987354;28;20596;-60
2024/01/07 02:15:20;;;;;;;26.47;17.80;;;11.80;63.50;;;;;;4989800;28;20477;-59
2024/01/07 02:17:45;;;;;;;24.30;15.67;;;11.80;63.50;;;;;;4986431;28;20738;-60
2024/01/07 02:20:11;;;;;;;18.33;14.33;;;11.90;63.40;;;;;;4984144;28;20191;-59
2024/01/07 02:22:36;;;;;;;26.40;15.67;;;11.90;63.30;;;;;;4980306;28;21196;-61
2024/01/07 02:25:03;;;;;;;20.93;15.50;;;11.80;63.20;;;;;;4990673;28;20189;-61
2024/01/07 02:27:28;;;;;;;21.30;15.60;;;11.90;63.30;;;;;;4985208;28;20188;-61
2024/01/07 02:29:54;;;;;;;18.57;14.00;;;11.90;63.30;;;;;;4990766;28;20430;-59
2024/01/07 02:32:19;;;;;;;22.10;16.27;;;11.90;63.40;;;;;;4988336;28;20206;-61
2024/01/07 02:34:46;;;;;;;22.37;15.70;;;11.90;63.20;;;;;;5001148;28;20212;-59
2024/01/07 02:37:12;;;;;;;22.30;15.03;;;11.90;63.30;;;;;;4998972;28;20225;-60
2024/01/07 02:39:38;;;;;;;21.83;16.10;;;11.90;63.30;;;;;;4992959;28;20449;-60
2024/01/07 02:42:03;;;;;;;20.90;15.73;;;11.90;63.40;;;;;;4990418;28;20241;-61
2024/01/07 02:44:29;;;;;;;18.70;14.30;;;11.80;63.10;;;;;;4985809;28;20214;-61
2024/01/07 02:46:55;;;;;;;26.77;16.67;;;11.80;63.20;;;;;;4984140;28;20221;-61
2024/01/07 02:49:20;;;;;;;21.93;14.83;;;11.80;63.20;;;;;;4997162;28;20570;-60
2024/01/07 02:51:49;;;;;;;20.47;15.70;;;11.80;63.10;;;;;;4987679;28;20187;-62
2024/01/07 02:54:15;;;;;;;18.87;13.80;;;11.80;63.20;;;;;;4988253;28;20832;-61
2024/01/07 02:56:40;;;;;;;21.47;14.40;;;11.80;63.20;;;;;;4992477;28;20492;-62
2024/01/07 02:59:06;;;;;;;21.17;15.07;;;11.70;62.90;;;;;;4990591;28;20446;-61
2024/01/07 03:01:40;;;;;;;19.80;15.07;;;11.80;62.90;;;;;;4986018;28;20669;-62
2024/01/07 03:04:06;;;;;;;18.50;13.40;;;11.70;62.70;;;;;;4983279;28;20437;-61
2024/01/07 03:06:32;;;;;;;19.40;14.53;;;11.70;62.80;;;;;;4983870;28;20603;-60
2024/01/07 03:08:57;;;;;;;18.30;12.00;;;11.70;63.00;;;;;;4990954;28;20539;-59
2024/01/07 03:11:23;;;;;;;17.47;13.70;;;11.70;62.70;;;;;;4996563;28;20194;-61
2024/01/07 03:13:48;;;;;;;15.60;12.97;;;11.70;62.60;;;;;;4996206;28;20200;-60
2024/01/07 03:16:25;;;;;;;17.87;13.57;;;11.70;62.50;;;;;;4984222;28;20210;-62
2024/01/07 03:18:51;;;;;;;18.00;13.37;;;11.80;62.50;;;;;;5000424;28;20198;-57
2024/01/07 03:21:20;;;;;;;16.00;12.20;;;11.70;62.50;;;;;;4989214;28;20457;-61
2024/01/07 03:23:47;;;;;;;15.00;13.27;;;11.70;62.50;;;;;;4998500;28;20686;-60
2024/01/07 03:26:13;;;;;;;16.20;12.40;;;11.70;62.40;;;;;;4995669;28;20437;-60
2024/01/07 03:28:39;;;;;;;17.67;12.70;;;11.70;62.10;;;;;;5004214;28;20758;-60
2024/01/07 03:31:15;;;;;;;16.43;11.47;;;11.70;62.20;;;;;;4993187;28;20459;-61
2024/01/07 03:33:42;;;;;;;13.50;11.10;;;11.60;62.10;;;;;;4994680;28;20191;-61
2024/01/07 03:36:12;;;;;;;13.03;11.63;;;11.60;62.20;;;;;;4997457;28;20484;-61
2024/01/07 03:38:39;;;;;;;16.47;12.00;;;11.60;62.00;;;;;;4986108;28;20470;-61
2024/01/07 03:41:05;;;;;;;14.27;11.77;;;11.60;61.80;;;;;;5000664;28;20440;-60
2024/01/07 03:43:30;;;;;;;12.40;10.80;;;11.60;61.60;;;;;;4994653;28;20464;-60
2024/01/07 03:45:56;;;;;;;16.33;13.00;;;11.60;61.30;;;;;;4997832;28;20206;-59
2024/01/07 03:48:22;;;;;;;17.37;12.50;;;11.60;60.90;;;;;;4990534;28;20437;-61
2024/01/07 03:50:47;;;;;;;12.13;10.33;;;11.60;61.10;;;;;;4989616;28;20667;-61
2024/01/07 03:53:15;;;;;;;13.67;10.67;;;11.60;60.90;;;;;;4994673;28;20210;-60
2024/01/07 03:55:40;;;;;;;16.53;11.53;;;11.60;61.00;;;;;;4991835;28;20222;-61
2024/01/07 03:58:06;;;;;;;12.27;10.53;;;11.60;60.70;;;;;;4991308;28;20461;-62
2024/01/07 04:00:32;;;;;;;13.90;10.43;;;11.40;60.50;;;;;;4989605;28;20190;-62
2024/01/07 04:02:58;;;;;;;12.70;9.97;;;11.40;61.00;;;;;;4981539;28;20654;-61
2024/01/07 04:05:23;;;;;;;11.10;9.10;;;11.50;61.20;;;;;;4983647;28;20466;-59
2024/01/07 04:07:49;;;;;;;13.13;10.20;;;11.50;61.10;;;;;;4989711;28;20273;-61
2024/01/07 04:10:16;;;;;;;11.10;10.00;;;11.50;61.10;;;;;;4989446;28;20198;-61
2024/01/07 04:12:42;;;;;;;13.23;10.40;;;11.50;60.80;;;;;;4985972;28;20186;-59
2024/01/07 04:15:08;;;;;;;10.03;9.00;;;11.50;60.80;;;;;;4977841;28;21011;-60
2024/01/07 04:17:34;;;;;;;13.50;10.40;;;11.50;60.70;;;;;;4984437;28;20187;-62
2024/01/07 04:19:59;;;;;;;12.30;10.03;;;11.40;60.70;;;;;;4985314;28;21002;-59
2024/01/07 04:22:25;;;;;;;9.83;8.90;;;11.40;60.80;;;;;;4997740;28;20201;-59
2024/01/07 04:24:50;;;;;;;10.20;9.13;;;11.40;60.50;;;;;;4990070;28;20187;-60
2024/01/07 04:27:16;;;;;;;12.63;9.93;;;11.40;60.40;;;;;;4999477;28;20211;-60
2024/01/07 04:29:41;;;;;;;11.07;9.80;;;11.50;60.30;;;;;;4988578;28;20277;-59
2024/01/07 04:32:07;;;;;;;11.13;9.60;;;11.40;60.00;;;;;;4989653;28;20444;-59
2024/01/07 04:34:32;;;;;;;11.90;9.80;;;11.40;60.20;;;;;;4985871;28;20620;-62
2024/01/07 04:36:58;;;;;;;10.87;9.47;;;11.50;60.30;;;;;;4995621;28;20208;-62
2024/01/07 04:39:23;;;;;;;10.07;9.03;;;11.50;60.50;;;;;;4994876;28;20959;-58
2024/01/07 04:41:49;;;;;;;10.13;9.07;;;11.40;60.40;;;;;;4996325;28;20205;-59
2024/01/07 04:44:14;;;;;;;10.30;8.40;;;11.50;60.60;;;;;;4987769;28;20186;-62
2024/01/07 04:46:40;;;;;;;15.03;8.73;;;11.40;60.40;;;;;;4988227;28;20215;-59
2024/01/07 04:49:06;;;;;;;11.10;9.83;;;11.40;60.40;;;;;;4997415;28;20194;-62
2024/01/07 04:51:33;;;;;;;10.97;9.30;;;11.50;60.30;;;;;;4982135;28;20281;-62
2024/01/07 04:53:58;;;;;;;9.90;8.87;;;11.50;60.30;;;;;;4997036;28;20200;-61
2024/01/07 04:56:24;;;;;;;10.90;9.17;;;11.50;60.20;;;;;;4987620;28;20461;-61
2024/01/07 04:58:49;;;;;;;10.50;9.23;;;11.50;60.10;;;;;;4989536;28;20191;-59
2024/01/07 05:01:15;;;;;;;10.20;9.23;;;11.50;60.20;;;;;;4985596;28;20195;-61
2024/01/07 05:03:41;;;;;;;10.20;9.20;;;11.50;60.40;;;;;;4991449;28;20564;-62
2024/01/07 05:06:09;;;;;;;10.33;8.73;;;11.50;60.40;;;;;;4992218;28;20214;-60
2024/01/07 05:08:37;;;;;;;11.07;9.10;;;11.50;60.40;;;;;;4980388;28;20183;-61
2024/01/07 05:11:03;;;;;;;12.10;9.40;;;11.50;60.50;;;;;;4983926;28;20964;-62
2024/01/07 05:13:28;;;;;;;12.00;9.83;;;11.50;60.60;;;;;;4986681;28;20446;-61
2024/01/07 05:15:54;;;;;;;10.03;9.03;;;11.50;60.60;;;;;;4988133;28;20492;-59
2024/01/07 05:18:25;;;;;;;10.53;9.47;;;11.50;60.70;;;;;;4989528;28;20295;-60
2024/01/07 05:20:51;;;;;;;12.03;9.50;;;11.50;61.10;;;;;;4991014;28;20261;-59
2024/01/07 05:23:17;;;;;;;10.10;9.10;;;11.40;60.90;;;;;;4986754;28;20458;-60
2024/01/07 05:25:44;;;;;;;12.60;8.93;;;11.40;61.00;;;;;;4984307;28;20551;-62
2024/01/07 05:28:10;;;;;;;10.37;8.47;;;11.40;61.00;;;;;;5001691;28;20200;-61
2024/01/07 05:30:36;;;;;;;11.20;8.77;;;11.40;60.80;;;;;;4979760;28;20892;-60
2024/01/07 05:33:02;;;;;;;11.07;9.67;;;11.40;60.90;;;;;;5000378;28;20433;-58
2024/01/07 05:35:27;;;;;;;12.43;9.03;;;11.40;61.00;;;;;;4983529;28;21075;-60
2024/01/07 05:37:53;;;;;;;11.57;8.70;;;11.40;61.20;;;;;;4987963;28;20319;-60
2024/01/07 05:40:19;;;;;;;10.27;9.23;;;11.40;61.10;;;;;;4993445;28;20193;-61
2024/01/07 05:42:44;;;;;;;11.73;10.27;;;11.40;61.20;;;;;;4986864;28;20224;-59
2024/01/07 05:45:10;;;;;;;10.53;8.30;;;11.50;61.20;;;;;;4993393;28;20190;-59
2024/01/07 05:47:35;;;;;;;10.77;8.90;;;11.40;61.20;;;;;;4994370;28;20745;-60
2024/01/07 05:50:02;;;;;;;13.20;9.70;;;11.50;61.30;;;;;;4991288;28;20193;-59
2024/01/07 05:52:27;;;;;;;11.93;9.90;;;11.50;61.40;;;;;;4989860;28;20189;-60
2024/01/07 05:54:53;;;;;;;10.10;9.03;;;11.50;61.60;;;;;;4987005;28;20478;-59
2024/01/07 05:57:19;;;;;;;12.47;9.60;;;11.40;61.80;;;;;;4980880;28;20203;-60
2024/01/07 05:59:45;;;;;;;11.50;10.20;;;11.40;61.90;;;;;;4986420;28;20199;-60
2024/01/07 06:02:12;;;;;;;11.30;10.20;;;11.40;61.90;;;;;;4982635;28;20440;-60
2024/01/07 06:04:38;;;;;;;10.00;9.00;;;11.40;61.90;;;;;;4979857;28;20449;-60
2024/01/07 06:07:04;;;;;;;12.30;9.40;;;11.40;61.90;;;;;;4991549;28;20472;-60
2024/01/07 06:09:30;;;;;;;9.17;8.27;;;11.40;62.00;;;;;;4992599;28;20460;-59
2024/01/07 06:11:55;;;;;;;13.47;8.90;;;11.30;61.90;;;;;;4989664;28;20461;-59
2024/01/07 06:14:22;;;;;;;10.00;8.97;;;11.30;62.00;;;;;;4991826;28;20248;-60
2024/01/07 06:16:48;;;;;;;9.97;8.97;;;11.40;61.80;;;;;;4987166;28;20870;-60
2024/01/07 06:19:14;;;;;;;9.90;8.40;;;11.30;61.30;;;;;;4990589;28;20437;-59
2024/01/07 06:21:40;;;;;;;11.40;8.90;;;11.20;61.20;;;;;;4982472;28;20226;-61
2024/01/07 06:24:08;;;;;;;10.93;8.30;;;11.20;61.60;;;;;;5000064;28;20465;-60
2024/01/07 06:26:33;;;;;;;10.00;9.10;;;11.30;61.70;;;;;;4985480;28;20255;-61
2024/01/07 06:28:59;;;;;;;9.67;8.70;;;11.50;61.70;;;;;;4993201;28;20460;-61
2024/01/07 06:31:25;;;;;;;12.23;8.97;;;11.70;61.20;;;;;;4997245;28;20685;-61
2024/01/07 06:33:51;;;;;;;12.27;9.37;;;11.70;60.20;;;;;;4997199;28;20459;-60
2024/01/07 06:36:16;;;;;;;9.57;8.00;;;11.80;60.20;;;;;;4994371;28;20232;-61
2024/01/07 06:38:42;;;;;;;11.93;9.00;;;11.90;60.20;;;;;;4994348;28;20561;-61
2024/01/07 06:41:09;;;;;;;9.90;8.90;;;12.00;60.00;;;;;;4992400;28;20194;-61
2024/01/07 06:43:35;;;;;;;9.13;8.23;;;12.20;59.40;;;;;;4987868;28;20248;-59
2024/01/07 06:46:00;;;;;;;10.83;8.30;;;12.30;59.00;;;;;;4992750;28;20551;-61
2024/01/07 06:48:26;;;;;;;8.90;8.10;;;12.50;58.50;;;;;;4989250;28;20186;-59
2024/01/07 06:50:51;;;;;;;9.03;8.13;;;12.50;57.90;;;;;;5003543;28;20183;-59
2024/01/07 06:53:17;;;;;;;10.87;8.83;;;12.40;57.70;;;;;;4998229;28;20191;-61
2024/01/07 06:55:43;;;;;;;10.30;9.30;;;12.40;57.60;;;;;;4993298;28;20219;-61
2024/01/07 06:58:08;;;;;;;11.03;9.17;;;12.40;57.60;;;;;;4992368;28;20209;-59
2024/01/07 07:00:34;;;;;;;10.60;9.50;;;12.20;57.00;;;;;;4991351;28;20194;-60
2024/01/07 07:02:59;;;;;;;8.27;7.47;;;12.10;57.70;;;;;;4989739;28;20190;-60
2024/01/07 07:05:25;;;;;;;9.43;8.47;;;12.00;57.70;;;;;;4982625;28;20210;-60
2024/01/07 07:07:50;;;;;;;9.80;8.80;;;11.90;57.70;;;;;;4996122;28;20280;-61
2024/01/07 07:10:16;;;;;;;12.70;9.53;;;11.80;57.60;;;;;;4993287;28;20328;-60
2024/01/07 07:12:41;;;;;;;9.37;8.47;;;11.70;57.60;;;;;;5003996;28;20237;-60
2024/01/07 07:15:09;;;;;;;9.33;8.43;;;11.70;57.60;;;;;;4991121;28;20209;-60
2024/01/07 07:17:36;;;;;;;10.03;8.93;;;11.90;57.90;;;;;;4998015;28;20190;-59
2024/01/07 07:20:02;;;;;;;10.00;8.47;;;11.90;56.80;;;;;;5001385;28;20436;-60
2024/01/07 07:22:28;;;;;;;10.03;8.67;;;11.70;56.30;;;;;;4998781;28;20439;-61
2024/01/07 07:24:54;;;;;;;9.33;8.20;;;11.60;55.80;;;;;;5004617;28;20217;-60
2024/01/07 07:27:19;;;;;;;11.70;8.90;;;11.30;56.30;;;;;;4995444;28;20446;-59
2024/01/07 07:29:45;;;;;;;10.50;8.60;;;10.90;57.00;;;;;;4987859;28;20205;-60
2024/01/07 07:32:10;;;;;;;11.20;8.63;;;10.80;57.60;;;;;;4989855;28;20193;-59
2024/01/07 07:34:36;;;;;;;9.50;8.00;;;10.80;57.70;;;;;;4997459;28;20222;-58
2024/01/07 07:37:02;;;;;;;11.90;9.23;;;10.90;58.00;;;;;;4984999;28;20301;-60
2024/01/07 07:39:28;;;;;;;9.73;8.73;;;10.90;57.90;;;;;;4984126;28;20545;-57
2024/01/07 07:41:53;;;;;;;10.93;8.77;;;10.90;58.00;;;;;;4987682;28;20195;-58
2024/01/07 07:44:19;;;;;;;11.20;9.13;;;10.80;58.00;;;;;;4988981;28;20661;-59
2024/01/07 07:46:44;;;;;;;11.67;8.30;;;10.90;58.00;;;;;;4998382;28;20210;-60
2024/01/07 07:49:11;;;;;;;10.50;8.93;;;10.80;58.10;;;;;;5001912;28;20181;-58
2024/01/07 07:51:36;;;;;;;10.87;9.10;;;10.90;58.30;;;;;;5004055;28;20198;-59
2024/01/07 07:54:03;;;;;;;9.13;7.93;;;10.60;58.00;;;;;;4992427;28;20687;-59
2024/01/07 07:56:29;;;;;;;8.60;7.70;;;10.40;58.10;;;;;;5003039;28;20206;-59
2024/01/07 07:58:54;;;;;;;10.73;7.97;;;10.30;58.50;;;;;;4992057;28;21062;-58
2024/01/07 08:01:20;;;;;;;8.83;7.80;;;10.00;58.00;;;;;;4993388;28;20185;-59
2024/01/07 08:03:45;;;;;;;11.37;8.23;;;9.60;59.40;;;;;;4987566;28;20205;-59
2024/01/07 08:06:11;;;;;;;9.50;7.73;;;9.70;59.90;;;;;;4995193;28;20220;-60
2024/01/07 08:08:37;;;;;;;10.30;8.43;;;9.70;59.60;;;;;;4986130;28;20198;-59
2024/01/07 08:11:05;;;;;;;6.93;5.83;;;9.40;59.80;;;;;;5001620;28;20253;-59
2024/01/07 08:13:31;;;;;;;7.07;6.37;;;9.10;60.20;;;;;;4998353;28;20187;-60
2024/01/07 08:15:56;;;;;;;6.67;5.47;;;9.10;60.00;;;;;;4996836;28;20489;-58
2024/01/07 08:18:22;;;;;;;8.07;5.33;;;9.30;59.80;;;;;;5001441;28;20733;-58
2024/01/07 08:20:47;;;;;;;6.07;5.37;;;9.20;59.10;;;;;;4993353;28;20202;-58
2024/01/07 08:23:13;;;;;;;6.93;5.63;;;9.30;59.00;;;;;;4990238;28;20266;-57
2024/01/07 08:25:38;;;;;;;8.80;5.47;;;9.30;59.00;;;;;;5000761;28;20265;-59
2024/01/07 08:28:04;;;;;;;6.70;5.67;;;9.50;59.10;;;;;;4992169;28;20190;-58
2024/01/07 08:30:30;;;;;;;7.97;6.17;;;9.70;58.80;;;;;;4993462;28;20184;-60
2024/01/07 08:32:55;;;;;;;10.43;6.10;;;9.80;58.70;;;;;;4988700;28;20217;-58
2024/01/07 08:35:22;;;;;;;8.97;5.80;;;9.70;58.50;;;;;;4978955;28;20218;-58
2024/01/07 08:37:47;;;;;;;6.27;5.50;;;9.80;58.60;;;;;;4983318;28;20199;-58
2024/01/07 08:40:13;;;;;;;9.13;6.63;;;9.80;58.40;;;;;;4984455;28;20471;-60
2024/01/07 08:42:39;;;;;;;8.20;6.17;;;9.90;58.40;;;;;;4996279;28;20198;-57
2024/01/07 08:45:05;;;;;;;8.20;6.30;;;10.00;57.00;;;;;;4990274;28;20445;-56
2024/01/07 08:47:31;;;;;;;8.13;6.37;;;10.00;56.80;;;;;;4999838;28;20214;-57
2024/01/07 08:49:57;;;;;;;7.17;6.00;;;10.10;56.90;;;;;;5006716;28;20842;-57
2024/01/07 08:52:23;;;;;;;12.10;6.23;;;10.20;56.80;;;;;;4993706;28;20199;-59
2024/01/07 08:54:49;;;;;;;10.10;6.50;;;10.20;56.60;;;;;;4998606;28;20515;-59
2024/01/07 08:57:14;;;;;;;8.00;6.70;;;10.20;56.80;;;;;;5000143;28;20496;-57
2024/01/07 08:59:40;;;;;;;7.90;6.13;;;10.30;56.90;;;;;;5004516;28;20272;-58
2024/01/07 09:02:06;;;;;;;8.40;6.97;;;10.10;56.50;;;;;;4991739;28;20198;-58
2024/01/07 09:04:33;;;;;;;6.20;5.60;;;9.90;57.90;;;;;;5000229;28;20194;-58
2024/01/07 09:06:59;;;;;;;7.80;5.50;;;9.90;57.90;;;;;;5003741;28;20197;-58
2024/01/07 09:09:24;;;;;;;6.80;5.30;;;9.80;58.10;;;;;;5002303;28;20436;-58
2024/01/07 09:11:51;;;;;;;10.37;6.43;;;9.70;58.40;;;;;;4990649;28;20904;-58
2024/01/07 09:14:17;;;;;;;6.77;5.90;;;9.80;58.00;;;;;;5001484;28;20240;-60
2024/01/07 09:16:43;;;;;;;9.23;6.37;;;10.00;57.00;;;;;;4993237;28;20457;-60
2024/01/07 09:19:08;;;;;;;6.20;5.07;;;10.00;56.80;;;;;;4991623;28;20190;-60
2024/01/07 09:21:34;;;;;;;9.30;6.27;;;9.90;57.50;;;;;;4980797;28;20241;-58
2024/01/07 09:23:59;;;;;;;7.70;4.90;;;9.90;57.10;;;;;;4994255;28;20799;-59
2024/01/07 09:26:25;;;;;;;7.20;5.97;;;9.80;56.90;;;;;;4994621;28;21026;-60
2024/01/07 09:28:51;;;;;;;6.63;5.10;;;9.70;56.90;;;;;;4998530;28;20186;-60
2024/01/07 09:31:17;;;;;;;6.60;5.10;;;9.60;56.90;;;;;;5001192;28;20190;-58
2024/01/07 09:33:43;;;;;;;6.57;5.53;;;9.50;57.30;;;;;;4992300;28;21006;-59
2024/01/07 09:36:08;;;;;;;6.03;5.47;;;9.50;57.20;;;;;;4974593;28;20273;-58
2024/01/07 09:38:34;;;;;;;6.03;5.23;;;9.60;57.00;;;;;;4989980;28;20252;-60
2024/01/07 09:40:59;;;;;;;7.90;5.60;;;9.60;57.10;;;;;;4992743;28;20796;-60
2024/01/07 09:43:25;;;;;;;6.23;5.20;;;9.60;57.10;;;;;;4985910;28;21018;-59
2024/01/07 09:45:53;;;;;;;8.17;5.50;;;9.70;57.20;;;;;;4996250;28;20211;-60
2024/01/07 09:48:19;;;;;;;5.93;5.00;;;9.80;56.90;;;;;;4989111;28;20213;-59
2024/01/07 09:50:44;;;;;;;6.40;5.27;;;10.00;55.90;;;;;;4988361;28;20457;-58
2024/01/07 09:53:19;;;;;;;6.20;5.10;;;9.90;56.50;;;;;;4990028;28;20193;-60
2024/01/07 09:55:56;;;;;;;6.37;4.83;;;10.00;55.80;;;;;;4995735;28;20213;-59
2024/01/07 09:58:22;;;;;;;5.40;4.70;;;9.70;56.70;;;;;;4991253;28;20930;-59
2024/01/07 10:00:48;;;;;;;6.00;5.13;;;9.70;56.70;;;;;;4986655;28;20446;-58
2024/01/07 10:03:14;;;;;;;5.60;4.53;;;9.60;56.70;;;;;;4985860;28;20183;-59
2024/01/07 10:05:39;;;;;;;6.13;4.83;;;9.70;56.60;;;;;;4982591;28;20678;-60
2024/01/07 10:08:06;;;;;;;7.07;4.93;;;9.70;56.50;;;;;;4973163;28;20857;-60
2024/01/07 10:10:32;;;;;;;5.77;4.53;;;9.70;56.50;;;;;;5000168;28;20252;-57
2024/01/07 10:12:57;;;;;;;6.20;4.50;;;9.60;56.30;;;;;;4987598;28;21157;-60
2024/01/07 10:15:23;;;;;;;5.33;4.83;;;9.50;56.50;;;;;;5000294;28;20220;-60
2024/01/07 10:17:49;;;;;;;6.70;5.23;;;9.60;56.70;;;;;;4983848;28;20242;-58
2024/01/07 10:20:16;;;;;;;7.37;5.60;;;9.50;56.40;;;;;;4979727;28;20196;-57
2024/01/07 10:22:49;;;;;;;7.20;5.70;;;9.40;56.90;;;;;;4985469;28;20191;-55
2024/01/07 10:25:15;;;;;;;6.83;5.03;;;9.20;56.70;;;;;;4979729;28;20454;-59
2024/01/07 10:27:41;;;;;;;7.13;5.33;;;9.20;57.30;;;;;;4988479;28;20452;-59
2024/01/07 10:30:07;;;;;;;7.00;5.27;;;9.40;57.00;;;;;;4992349;28;20531;-56
2024/01/07 10:32:36;;;;;;;7.80;6.47;;;9.40;56.70;;;;;;4986251;28;20554;-59
2024/01/07 10:35:04;;;;;;;7.47;5.63;;;9.50;56.50;;;;;;4994285;28;20969;-59
2024/01/07 10:37:30;;;;;;;10.00;6.70;;;9.40;56.20;;;;;;4978456;28;20493;-59
2024/01/07 10:40:03;;;;;;;7.00;5.60;;;9.40;56.00;;;;;;4984491;28;20500;-58
2024/01/07 10:42:33;;;;;;;6.87;5.83;;;9.50;56.50;;;;;;4996423;28;20449;-59
2024/01/07 10:45:00;;;;;;;6.90;5.80;;;9.60;56.10;;;;;;4980197;28;20539;-60
2024/01/07 10:47:31;;;;;;;8.80;6.30;;;9.20;55.70;;;;;;4993842;28;20477;-59
2024/01/07 10:50:02;;;;;;;7.27;5.93;;;8.90;55.40;;;;;;4995061;28;20792;-59
2024/01/07 10:52:28;;;;;;;7.43;5.97;;;8.70;56.00;;;;;;4990114;28;20822;-60
2024/01/07 10:55:01;;;;;;;7.30;5.80;;;8.70;56.30;;;;;;4986309;28;20477;-59
2024/01/07 10:57:47;;;;;;;6.80;6.10;;;8.80;56.20;;;;;;4996922;28;20278;-60
2024/01/07 11:00:18;;;;;;;7.23;6.00;;;8.70;55.70;;;;;;4989725;28;20562;-58
2024/01/07 11:03:18;;;;;;;7.30;5.83;;;8.70;56.40;;;;;;4986495;28;20442;-60
2024/01/07 11:05:52;;;;;;;6.50;5.77;;;8.70;56.20;;;;;;4981097;28;20548;-59
2024/01/07 11:08:36;;;;;;;6.80;5.10;;;8.60;56.70;;;;;;4989843;28;20998;-59
2024/01/07 11:11:23;;;;;;;5.90;5.30;;;8.40;56.00;;;;;;4999680;28;20437;-59
2024/01/07 11:13:49;;;;;;;6.80;5.50;;;8.50;56.40;;;;;;4989831;28;20437;-60
2024/01/07 11:16:41;;;;;;;6.20;5.00;;;8.70;56.20;;;;;;4994341;28;20531;-58
2024/01/07 11:19:07;;;;;;;5.70;5.10;;;8.90;55.80;;;;;;4990265;28;20835;-59
2024/01/07 11:21:33;;;;;;;6.37;5.33;;;8.90;55.70;;;;;;4987295;28;20438;-60
2024/01/07 11:23:58;;;;;;;6.80;6.10;;;8.90;55.40;;;;;;4996547;28;20206;-59
2024/01/07 11:26:24;;;;;;;8.17;5.63;;;8.90;56.20;;;;;;4989476;28;20803;-59
2024/01/07 11:28:56;;;;;;;6.20;5.20;;;8.50;56.00;;;;;;5001285;28;20209;-58
2024/01/07 11:31:41;;;;;;;7.27;6.40;;;8.30;56.80;;;;;;4991355;28;20257;-60
2024/01/07 11:34:07;;;;;;;6.60;4.50;;;8.20;57.20;;;;;;5001169;28;20428;-58
2024/01/07 11:36:38;;;;;;;6.93;5.00;;;8.20;57.50;;;;;;4989129;28;20481;-60
2024/01/07 11:39:08;;;;;;;7.53;5.57;;;8.50;57.10;;;;;;4990368;28;20461;-59
2024/01/07 11:41:35;;;;;;;7.13;5.40;;;8.70;56.20;;;;;;4998408;28;20440;-56
2024/01/07 11:44:02;;;;;;;10.23;6.83;;;8.90;55.90;;;;;;4991555;28;20856;-59
2024/01/07 11:46:29;;;;;;;6.53;5.27;;;8.80;56.10;;;;;;4975812;28;21023;-60
2024/01/07 11:48:59;;;;;;;7.77;5.80;;;8.90;56.10;;;;;;4981451;28;21509;-59
2024/01/07 11:51:32;;;;;;;7.17;5.73;;;8.70;55.50;;;;;;4993404;28;20435;-60
2024/01/07 11:53:58;;;;;;;6.30;5.23;;;8.80;55.80;;;;;;4980269;28;20452;-58
2024/01/07 11:56:28;;;;;;;7.50;6.17;;;8.80;56.00;;;;;;4991475;28;20543;-60
2024/01/07 11:58:53;;;;;;;6.40;5.80;;;8.70;55.50;;;;;;4997076;28;20447;-59
2024/01/07 12:01:19;;;;;;;7.03;5.57;;;8.80;55.40;;;;;;4991533;28;20502;-59
2024/01/07 12:03:46;;;;;;;7.60;6.73;;;9.10;55.40;;;;;;4984606;28;20487;-59
2024/01/07 12:06:13;;;;;;;7.70;6.00;;;9.20;55.30;;;;;;4987537;28;20221;-61
2024/01/07 12:08:43;;;;;;;6.60;6.00;;;9.30;55.00;;;;;;4996723;28;20446;-58
2024/01/07 12:11:11;;;;;;;8.60;6.57;;;9.30;54.80;;;;;;4982021;28;20442;-59
2024/01/07 12:13:37;;;;;;;8.63;7.30;;;9.20;54.10;;;;;;4995225;28;20537;-58
2024/01/07 12:16:04;;;;;;;6.73;5.87;;;8.90;54.40;;;;;;4992032;28;20860;-59
2024/01/07 12:18:29;;;;;;;7.60;6.37;;;8.90;55.10;;;;;;5000476;28;20536;-59
2024/01/07 12:20:57;;;;;;;7.23;5.47;;;8.80;54.90;;;;;;4993914;28;20564;-59
2024/01/07 12:23:23;;;;;;;6.83;5.73;;;8.80;55.00;;;;;;4994830;28;20182;-61
2024/01/07 12:25:49;;;;;;;7.47;6.77;;;8.70;54.90;;;;;;4992251;28;20556;-57
2024/01/07 12:28:18;;;;;;;6.70;6.00;;;8.20;54.80;;;;;;4995067;28;20542;-59
2024/01/07 12:30:44;;;;;;;7.50;6.37;;;8.20;56.00;;;;;;4987343;28;20275;-60
2024/01/07 12:33:09;;;;;;;7.23;5.83;;;7.90;55.80;;;;;;4993243;28;20544;-57
2024/01/07 12:35:35;;;;;;;7.70;5.70;;;7.70;56.10;;;;;;4986831;28;20227;-59
2024/01/07 12:38:02;;;;;;;6.50;5.57;;;7.60;56.40;;;;;;4997777;28;20204;-59